sensor_id;sensor_type;location;lat;lon;timestamp;pressure;altitude;pressure_sealevel;temperature;humidity
48792;BME280;34587;48.816;9.420;2023-05-02T04:16:18;99080.66;;;6.83;100.00
48792;BME280;34587;48.816;9.420;2023-05-02T04:18:44;99085.81;;;6.83;100.00
48792;BME280;34587;48.816;9.420;2023-05-02T04:21:09;99090.06;;;6.86;100.00
48792;BME280;34587;48.816;9.420;2023-05-02T04:23:34;99084.09;;;6.88;100.00
48792;BME280;34587;48.816;9.420;2023-05-02T04:26:00;99094.41;;;6.94;100.00
48792;BME280;34587;48.816;9.420;2023-05-02T04:28:25;99096.13;;;6.92;100.00
48792;BME280;34587;48.816;9.420;2023-05-02T04:30:50;99096.09;;;6.95;100.00
48792;BME280;34587;48.816;9.420;2023-05-02T04:33:16;99098.69;;;6.95;100.00
48792;BME280;34587;48.816;9.420;2023-05-02T04:35:42;99097.81;;;6.90;100.00
48792;BME280;34587;48.816;9.420;2023-05-02T04:38:08;99103.00;;;7.03;100.00
48792;BME280;34587;48.816;9.420;2023-05-02T04:40:33;99101.28;;;6.99;100.00
48792;BME280;34587;48.816;9.420;2023-05-02T04:42:59;99101.28;;;7.05;100.00
48792;BME280;34587;48.816;9.420;2023-05-02T04:45:24;99106.44;;;6.92;100.00
48792;BME280;34587;48.816;9.420;2023-05-02T04:47:50;99106.41;;;6.89;100.00
48792;BME280;34587;48.816;9.420;2023-05-02T04:50:15;99111.56;;;6.99;100.00
48792;BME280;34587;48.816;9.420;2023-05-02T04:52:40;99113.31;;;7.18;100.00
48792;BME280;34587;48.816;9.420;2023-05-02T04:55:06;99111.63;;;7.26;100.00
48792;BME280;34587;48.816;9.420;2023-05-02T04:57:32;99112.47;;;7.30;100.00
48792;BME280;34587;48.816;9.420;2023-05-02T04:59:57;99121.94;;;7.21;100.00
48792;BME280;34587;48.816;9.420;2023-05-02T05:02:23;99118.47;;;7.24;100.00
48792;BME280;34587;48.816;9.420;2023-05-02T05:04:50;99121.06;;;7.38;100.00
48792;BME280;34587;48.816;9.420;2023-05-02T05:07:15;99121.06;;;7.48;100.00
48792;BME280;34587;48.816;9.420;2023-05-02T05:09:40;99120.22;;;7.46;100.00
48792;BME280;34587;48.816;9.420;2023-05-02T05:12:05;99113.31;;;7.67;100.00
48792;BME280;34587;48.816;9.420;2023-05-02T05:14:32;99123.63;;;7.90;100.00
48792;BME280;34587;48.816;9.420;2023-05-02T05:16:57;99119.31;;;7.92;100.00
48792;BME280;34587;48.816;9.420;2023-05-02T05:19:23;99116.69;;;8.09;100.00
48792;BME280;34587;48.816;9.420;2023-05-02T05:21:48;99116.63;;;8.30;100.00
48792;BME280;34587;48.816;9.420;2023-05-02T05:24:14;99124.38;;;8.39;100.00
48792;BME280;34587;48.816;9.420;2023-05-02T05:26:39;99122.66;;;8.41;100.00
48792;BME280;34587;48.816;9.420;2023-05-02T05:29:05;99120.84;;;8.62;100.00
48792;BME280;34587;48.816;9.420;2023-05-02T05:31:31;99126.84;;;8.67;100.00
48792;BME280;34587;48.816;9.420;2023-05-02T05:33:57;99131.06;;;8.82;100.00
48792;BME280;34587;48.816;9.420;2023-05-02T05:36:22;99143.09;;;8.84;100.00
48792;BME280;34587;48.816;9.420;2023-05-02T05:38:47;99154.34;;;8.74;100.00
48792;BME280;34587;48.816;9.420;2023-05-02T05:41:13;99156.13;;;8.60;100.00
48792;BME280;34587;48.816;9.420;2023-05-02T05:43:38;99160.38;;;8.74;100.00
48792;BME280;34587;48.816;9.420;2023-05-02T05:46:04;99156.88;;;8.85;100.00
48792;BME280;34587;48.816;9.420;2023-05-02T05:48:29;99158.50;;;9.07;100.00
48792;BME280;34587;48.816;9.420;2023-05-02T05:50:54;99166.16;;;9.22;100.00
48792;BME280;34587;48.816;9.420;2023-05-02T05:53:20;99160.84;;;9.42;98.90
48792;BME280;34587;48.816;9.420;2023-05-02T05:55:45;99168.41;;;9.67;97.47
48792;BME280;34587;48.816;9.420;2023-05-02T05:58:11;99165.78;;;9.73;96.22
48792;BME280;34587;48.816;9.420;2023-05-02T06:00:37;99163.72;;;10.12;94.49
48792;BME280;34587;48.816;9.420;2023-05-02T06:03:03;99154.09;;;10.24;92.97
48792;BME280;34587;48.816;9.420;2023-05-02T06:05:29;99160.13;;;10.28;92.64
48792;BME280;34587;48.816;9.420;2023-05-02T06:07:55;99164.94;;;10.59;92.39
48792;BME280;34587;48.816;9.420;2023-05-02T06:10:21;99171.69;;;10.75;90.54
48792;BME280;34587;48.816;9.420;2023-05-02T06:12:47;99171.50;;;10.87;90.12
48792;BME280;34587;48.816;9.420;2023-05-02T06:15:12;99167.84;;;11.03;88.05
48792;BME280;34587;48.816;9.420;2023-05-02T06:17:37;99175.38;;;11.20;87.51
48792;BME280;34587;48.816;9.420;2023-05-02T06:20:03;99179.31;;;11.47;87.56
48792;BME280;34587;48.816;9.420;2023-05-02T06:22:28;99180.59;;;11.76;85.26
48792;BME280;34587;48.816;9.420;2023-05-02T06:24:54;99191.13;;;11.67;85.25
48792;BME280;34587;48.816;9.420;2023-05-02T06:27:19;99193.28;;;11.96;83.38
48792;BME280;34587;48.816;9.420;2023-05-02T06:29:44;99190.91;;;11.79;83.71
48792;BME280;34587;48.816;9.420;2023-05-02T06:32:09;99192.81;;;11.71;84.14
48792;BME280;34587;48.816;9.420;2023-05-02T06:34:35;99192.00;;;11.67;84.85
48792;BME280;34587;48.816;9.420;2023-05-02T06:37:00;99195.25;;;11.78;85.00
48792;BME280;34587;48.816;9.420;2023-05-02T06:39:25;99199.34;;;11.96;83.35
48792;BME280;34587;48.816;9.420;2023-05-02T06:41:56;99206.56;;;11.76;84.23
48792;BME280;34587;48.816;9.420;2023-05-02T06:44:21;99208.38;;;11.71;85.35
48792;BME280;34587;48.816;9.420;2023-05-02T06:46:46;99205.28;;;11.47;86.97
48792;BME280;34587;48.816;9.420;2023-05-02T06:49:12;99209.75;;;11.93;85.93
48792;BME280;34587;48.816;9.420;2023-05-02T06:51:37;99218.03;;;12.17;83.52
48792;BME280;34587;48.816;9.420;2023-05-02T06:54:02;99216.31;;;12.16;83.39
48792;BME280;34587;48.816;9.420;2023-05-02T06:56:28;99207.97;;;12.91;82.08
48792;BME280;34587;48.816;9.420;2023-05-02T06:58:53;99207.81;;;14.12;76.06
48792;BME280;34587;48.816;9.420;2023-05-02T07:01:18;99211.25;;;14.48;72.77
48792;BME280;34587;48.816;9.420;2023-05-02T07:03:45;99216.59;;;14.42;72.61
48792;BME280;34587;48.816;9.420;2023-05-02T07:06:10;99208.44;;;14.87;70.98
48792;BME280;34587;48.816;9.420;2023-05-02T07:08:35;99216.50;;;14.45;72.03
48792;BME280;34587;48.816;9.420;2023-05-02T07:11:01;99221.34;;;14.26;72.35
48792;BME280;34587;48.816;9.420;2023-05-02T07:13:26;99230.94;;;13.90;74.38
48792;BME280;34587;48.816;9.420;2023-05-02T07:15:52;99222.22;;;13.91;73.60
48792;BME280;34587;48.816;9.420;2023-05-02T07:18:18;99229.75;;;14.03;73.81
48792;BME280;34587;48.816;9.420;2023-05-02T07:20:43;99234.13;;;13.66;73.96
48792;BME280;34587;48.816;9.420;2023-05-02T07:23:09;99233.56;;;13.09;75.75
48792;BME280;34587;48.816;9.420;2023-05-02T07:25:34;99230.47;;;12.92;76.62
48792;BME280;34587;48.816;9.420;2023-05-02T07:28:00;99237.34;;;12.96;76.73
48792;BME280;34587;48.816;9.420;2023-05-02T07:30:26;99238.91;;;13.03;76.52
48792;BME280;34587;48.816;9.420;2023-05-02T07:32:51;99241.56;;;13.02;77.06
48792;BME280;34587;48.816;9.420;2023-05-02T07:35:16;99237.41;;;12.93;77.47
48792;BME280;34587;48.816;9.420;2023-05-02T07:37:41;99250.09;;;12.64;78.90
48792;BME280;34587;48.816;9.420;2023-05-02T07:40:07;99248.38;;;13.07;77.65
48792;BME280;34587;48.816;9.420;2023-05-02T07:42:34;99248.97;;;13.22;76.89
48792;BME280;34587;48.816;9.420;2023-05-02T07:45:00;99245.22;;;13.35;76.25
48792;BME280;34587;48.816;9.420;2023-05-02T07:47:25;99242.09;;;13.18;77.33
48792;BME280;34587;48.816;9.420;2023-05-02T07:49:52;99236.44;;;13.78;75.23
48792;BME280;34587;48.816;9.420;2023-05-02T07:52:18;99235.91;;;13.63;75.16
48792;BME280;34587;48.816;9.420;2023-05-02T07:54:44;99244.88;;;13.50;75.16
48792;BME280;34587;48.816;9.420;2023-05-02T07:57:11;99245.13;;;13.77;74.62
48792;BME280;34587;48.816;9.420;2023-05-02T07:59:37;99245.03;;;13.81;74.23
48792;BME280;34587;48.816;9.420;2023-05-02T08:02:02;99247.31;;;13.95;73.95
48792;BME280;34587;48.816;9.420;2023-05-02T08:04:28;99254.69;;;13.76;73.92
48792;BME280;34587;48.816;9.420;2023-05-02T08:06:54;99252.38;;;14.01;73.93
48792;BME280;34587;48.816;9.420;2023-05-02T08:09:19;99254.00;;;14.05;73.58
48792;BME280;34587;48.816;9.420;2023-05-02T08:11:44;99256.66;;;14.04;73.32
48792;BME280;34587;48.816;9.420;2023-05-02T08:14:10;99261.72;;;14.10;73.26
48792;BME280;34587;48.816;9.420;2023-05-02T08:16:35;99270.84;;;14.28;72.88
48792;BME280;34587;48.816;9.420;2023-05-02T08:19:01;99271.72;;;13.52;74.47
48792;BME280;34587;48.816;9.420;2023-05-02T08:21:26;99269.59;;;14.08;73.74
48792;BME280;34587;48.816;9.420;2023-05-02T08:23:56;99277.72;;;13.14;75.74
48792;BME280;34587;48.816;9.420;2023-05-02T08:26:22;99281.84;;;13.26;76.92
48792;BME280;34587;48.816;9.420;2023-05-02T08:28:49;99281.84;;;13.26;76.90
48792;BME280;34587;48.816;9.420;2023-05-02T08:31:15;99283.47;;;13.31;76.50
48792;BME280;34587;48.816;9.420;2023-05-02T08:33:40;99280.69;;;13.41;76.09
48792;BME280;34587;48.816;9.420;2023-05-02T08:36:16;99289.28;;;13.44;76.27
48792;BME280;34587;48.816;9.420;2023-05-02T08:38:42;99292.41;;;13.58;76.23
48792;BME280;34587;48.816;9.420;2023-05-02T08:41:15;99293.72;;;13.78;74.63
48792;BME280;34587;48.816;9.420;2023-05-02T08:43:45;99294.50;;;13.83;74.96
48792;BME280;34587;48.816;9.420;2023-05-02T08:46:11;99297.88;;;13.88;73.43
48792;BME280;34587;48.816;9.420;2023-05-02T08:48:39;99298.41;;;14.01;73.59
48792;BME280;34587;48.816;9.420;2023-05-02T08:51:14;99301.78;;;14.40;72.03
48792;BME280;34587;48.816;9.420;2023-05-02T08:53:41;99292.06;;;14.48;70.31
48792;BME280;34587;48.816;9.420;2023-05-02T08:56:08;99298.53;;;15.00;68.52
48792;BME280;34587;48.816;9.420;2023-05-02T08:58:37;99288.63;;;15.42;66.82
48792;BME280;34587;48.816;9.420;2023-05-02T09:01:07;99294.50;;;15.20;67.14
48792;BME280;34587;48.816;9.420;2023-05-02T09:03:34;99296.16;;;14.91;67.92
48792;BME280;34587;48.816;9.420;2023-05-02T09:06:09;99300.00;;;15.70;66.15
48792;BME280;34587;48.816;9.420;2023-05-02T09:08:35;99297.09;;;14.88;66.64
48792;BME280;34587;48.816;9.420;2023-05-02T09:11:02;99305.69;;;14.92;67.88
48792;BME280;34587;48.816;9.420;2023-05-02T09:13:39;99294.16;;;15.91;64.79
48792;BME280;34587;48.816;9.420;2023-05-02T09:16:09;99293.81;;;16.00;64.23
48792;BME280;34587;48.816;9.420;2023-05-02T09:18:39;99290.97;;;17.11;60.97
48792;BME280;34587;48.816;9.420;2023-05-02T09:21:10;99286.13;;;17.24;58.80
48792;BME280;34587;48.816;9.420;2023-05-02T09:23:51;99303.75;;;16.43;59.87
48792;BME280;34587;48.816;9.420;2023-05-02T09:26:18;99310.88;;;16.40;60.28
48792;BME280;34587;48.816;9.420;2023-05-02T09:28:52;99301.44;;;15.80;62.87
48792;BME280;34587;48.816;9.420;2023-05-02T09:31:26;99306.63;;;16.36;61.72
48792;BME280;34587;48.816;9.420;2023-05-02T09:33:52;99303.88;;;16.65;60.28
48792;BME280;34587;48.816;9.420;2023-05-02T09:36:19;99301.97;;;17.20;59.15
48792;BME280;34587;48.816;9.420;2023-05-02T09:38:47;99302.19;;;17.61;57.36
48792;BME280;34587;48.816;9.420;2023-05-02T09:41:13;99288.59;;;17.97;56.40
48792;BME280;34587;48.816;9.420;2023-05-02T09:43:39;99295.78;;;17.92;55.56
48792;BME280;34587;48.816;9.420;2023-05-02T09:46:09;99297.00;;;18.05;55.40
48792;BME280;34587;48.816;9.420;2023-05-02T09:48:55;99295.47;;;18.21;54.36
48792;BME280;34587;48.816;9.420;2023-05-02T09:51:22;99287.09;;;20.10;49.38
48792;BME280;34587;48.816;9.420;2023-05-02T09:53:48;99296.03;;;19.88;48.73
48792;BME280;34587;48.816;9.420;2023-05-02T09:56:14;99286.81;;;22.91;42.87
48792;BME280;34587;48.816;9.420;2023-05-02T09:58:39;99284.47;;;22.10;44.84
48792;BME280;34587;48.816;9.420;2023-05-02T10:01:05;99273.88;;;23.29;42.15
48792;BME280;34587;48.816;9.420;2023-05-02T10:03:30;99283.94;;;24.73;39.06
48792;BME280;34587;48.816;9.420;2023-05-02T10:05:59;99285.56;;;23.53;40.23
48792;BME280;34587;48.816;9.420;2023-05-02T10:08:26;99295.84;;;21.14;45.27
48792;BME280;34587;48.816;9.420;2023-05-02T10:10:54;99296.50;;;22.46;42.66
48792;BME280;34587;48.816;9.420;2023-05-02T10:13:22;99300.06;;;20.84;47.20
48792;BME280;34587;48.816;9.420;2023-05-02T10:16:01;99293.22;;;23.44;41.54
48792;BME280;34587;48.816;9.420;2023-05-02T10:18:47;99288.53;;;25.72;36.46
48792;BME280;34587;48.816;9.420;2023-05-02T10:21:16;99298.28;;;28.47;32.10
48792;BME280;34587;48.816;9.420;2023-05-02T10:23:43;99283.88;;;26.71;34.12
48792;BME280;34587;48.816;9.420;2023-05-02T10:26:14;99299.00;;;24.06;39.07
48792;BME280;34587;48.816;9.420;2023-05-02T10:28:40;99316.16;;;20.43;45.66
48792;BME280;34587;48.816;9.420;2023-05-02T10:31:09;99306.97;;;19.02;50.03
48792;BME280;34587;48.816;9.420;2023-05-02T10:33:37;99301.34;;;19.87;49.00
48792;BME280;34587;48.816;9.420;2023-05-02T10:36:02;99291.28;;;22.14;43.33
48792;BME280;34587;48.816;9.420;2023-05-02T10:38:28;99291.66;;;24.24;38.99
48792;BME280;34587;48.816;9.420;2023-05-02T10:41:00;99284.13;;;26.79;34.83
48792;BME280;34587;48.816;9.420;2023-05-02T10:43:31;99277.84;;;27.70;31.80
48792;BME280;34587;48.816;9.420;2023-05-02T10:45:58;99282.44;;;25.46;35.14
48792;BME280;34587;48.816;9.420;2023-05-02T10:48:25;99293.75;;;21.54;42.32
48792;BME280;34587;48.816;9.420;2023-05-02T10:51:00;99289.81;;;21.12;44.07
48792;BME280;34587;48.816;9.420;2023-05-02T10:53:33;99272.88;;;23.17;40.64
48792;BME280;34587;48.816;9.420;2023-05-02T10:56:20;99274.63;;;25.06;35.74
48792;BME280;34587;48.816;9.420;2023-05-02T10:58:48;99266.38;;;23.64;38.46
48792;BME280;34587;48.816;9.420;2023-05-02T11:04:07;99272.19;;;23.83;38.53
48792;BME280;34587;48.816;9.420;2023-05-02T11:06:35;99276.56;;;25.17;35.23
48792;BME280;34587;48.816;9.420;2023-05-02T11:11:46;99257.06;;;26.74;32.78
48792;BME280;34587;48.816;9.420;2023-05-02T11:19:29;99270.34;;;20.82;42.79
48792;BME280;34587;48.816;9.420;2023-05-02T11:24:49;99263.84;;;20.71;43.43
48792;BME280;34587;48.816;9.420;2023-05-02T11:35:17;99273.41;;;20.20;44.74
48792;BME280;34587;48.816;9.420;2023-05-02T11:37:42;99246.59;;;23.14;37.99
48792;BME280;34587;48.816;9.420;2023-05-02T11:40:12;99264.69;;;24.04;35.49
48792;BME280;34587;48.816;9.420;2023-05-02T11:42:37;99254.69;;;25.13;33.73
48792;BME280;34587;48.816;9.420;2023-05-02T11:45:02;99254.88;;;25.35;34.23
48792;BME280;34587;48.816;9.420;2023-05-02T11:47:31;99246.00;;;25.11;34.38
48792;BME280;34587;48.816;9.420;2023-05-02T11:49:57;99247.59;;;25.01;34.69
48792;BME280;34587;48.816;9.420;2023-05-02T11:52:24;99249.47;;;24.08;35.86
48792;BME280;34587;48.816;9.420;2023-05-02T11:54:53;99245.88;;;23.68;36.47
48792;BME280;34587;48.816;9.420;2023-05-02T11:57:20;99257.22;;;22.25;40.02
48792;BME280;34587;48.816;9.420;2023-05-02T11:59:54;99262.16;;;20.70;43.51
48792;BME280;34587;48.816;9.420;2023-05-02T12:02:35;99266.78;;;20.83;43.11
48792;BME280;34587;48.816;9.420;2023-05-02T12:05:01;99257.78;;;20.17;45.12
48792;BME280;34587;48.816;9.420;2023-05-02T12:07:41;99256.38;;;20.45;45.04
48792;BME280;34587;48.816;9.420;2023-05-02T12:10:09;99261.13;;;20.38;45.64
48792;BME280;34587;48.816;9.420;2023-05-02T12:12:35;99258.41;;;20.40;45.00
48792;BME280;34587;48.816;9.420;2023-05-02T12:15:03;99253.81;;;20.09;45.88
48792;BME280;34587;48.816;9.420;2023-05-02T12:17:29;99263.50;;;20.25;46.11
48792;BME280;34587;48.816;9.420;2023-05-02T12:19:55;99259.72;;;19.40;46.48
48792;BME280;34587;48.816;9.420;2023-05-02T12:22:22;99260.94;;;20.60;46.04
48792;BME280;34587;48.816;9.420;2023-05-02T12:24:48;99261.03;;;19.69;45.70
48792;BME280;34587;48.816;9.420;2023-05-02T12:27:15;99256.47;;;21.11;44.59
48792;BME280;34587;48.816;9.420;2023-05-02T12:29:42;99256.50;;;19.90;44.76
48792;BME280;34587;48.816;9.420;2023-05-02T12:32:09;99253.84;;;20.78;42.80
48792;BME280;34587;48.816;9.420;2023-05-02T12:34:35;99246.38;;;21.03;42.24
48792;BME280;34587;48.816;9.420;2023-05-02T12:37:02;99253.94;;;20.76;42.39
48792;BME280;34587;48.816;9.420;2023-05-02T12:39:38;99244.69;;;21.18;41.68
48792;BME280;34587;48.816;9.420;2023-05-02T12:42:15;99261.69;;;20.79;43.55
48792;BME280;34587;48.816;9.420;2023-05-02T12:44:43;99277.66;;;18.50;46.93
48792;BME280;34587;48.816;9.420;2023-05-02T12:47:10;99288.00;;;16.72;50.99
48792;BME280;34587;48.816;9.420;2023-05-02T12:49:53;99299.06;;;16.53;53.48
48792;BME280;34587;48.816;9.420;2023-05-02T12:52:21;99297.88;;;16.37;53.85
48792;BME280;34587;48.816;9.420;2023-05-02T12:55:22;99291.38;;;15.36;58.21
48792;BME280;34587;48.816;9.420;2023-05-02T12:57:49;99306.00;;;15.73;59.26
48792;BME280;34587;48.816;9.420;2023-05-02T13:00:17;99309.47;;;15.44;65.59
48792;BME280;34587;48.816;9.420;2023-05-02T13:02:43;99306.66;;;15.80;69.18
48792;BME280;34587;48.816;9.420;2023-05-02T13:05:17;99310.81;;;15.57;70.40
48792;BME280;34587;48.816;9.420;2023-05-02T13:07:43;99312.94;;;15.13;74.13
48792;BME280;34587;48.816;9.420;2023-05-02T13:10:09;99320.78;;;15.13;77.22
48792;BME280;34587;48.816;9.420;2023-05-02T13:12:35;99323.88;;;14.95;77.30
48792;BME280;34587;48.816;9.420;2023-05-02T13:15:06;99321.94;;;14.71;74.91
48792;BME280;34587;48.816;9.420;2023-05-02T13:17:32;99313.31;;;15.00;76.26
48792;BME280;34587;48.816;9.420;2023-05-02T13:19:57;99317.59;;;15.02;71.67
48792;BME280;34587;48.816;9.420;2023-05-02T13:22:23;99307.44;;;15.23;75.09
48792;BME280;34587;48.816;9.420;2023-05-02T13:24:48;99306.03;;;15.42;72.50
48792;BME280;34587;48.816;9.420;2023-05-02T13:27:14;99304.34;;;15.71;69.38
48792;BME280;34587;48.816;9.420;2023-05-02T13:29:39;99297.06;;;16.08;74.21
48792;BME280;34587;48.816;9.420;2023-05-02T13:32:04;99294.56;;;16.32;68.60
48792;BME280;34587;48.816;9.420;2023-05-02T13:34:30;99296.66;;;16.74;69.64
48792;BME280;34587;48.816;9.420;2023-05-02T13:36:55;99286.81;;;16.55;62.37
48792;BME280;34587;48.816;9.420;2023-05-02T13:39:20;99286.25;;;17.44;63.29
48792;BME280;34587;48.816;9.420;2023-05-02T13:41:46;99278.34;;;17.91;65.54
48792;BME280;34587;48.816;9.420;2023-05-02T13:44:11;99281.22;;;17.61;62.50
48792;BME280;34587;48.816;9.420;2023-05-02T13:46:36;99274.06;;;17.19;60.39
48792;BME280;34587;48.816;9.420;2023-05-02T13:49:03;99278.53;;;17.41;61.18
48792;BME280;34587;48.816;9.420;2023-05-02T13:51:29;99278.97;;;17.76;59.57
48792;BME280;34587;48.816;9.420;2023-05-02T13:53:58;99277.44;;;17.68;62.62
48792;BME280;34587;48.816;9.420;2023-05-02T13:56:23;99282.16;;;17.60;60.14
48792;BME280;34587;48.816;9.420;2023-05-02T13:58:49;99286.97;;;17.71;62.55
48792;BME280;34587;48.816;9.420;2023-05-02T14:01:14;99279.44;;;18.07;60.23
48792;BME280;34587;48.816;9.420;2023-05-02T14:03:39;99281.75;;;17.93;59.72
48792;BME280;34587;48.816;9.420;2023-05-02T14:06:05;99274.44;;;18.01;60.75
48792;BME280;34587;48.816;9.420;2023-05-02T14:08:30;99270.25;;;18.17;59.83
48792;BME280;34587;48.816;9.420;2023-05-02T14:10:56;99271.16;;;17.96;57.56
48792;BME280;34587;48.816;9.420;2023-05-02T14:13:21;99271.06;;;18.19;58.99
48792;BME280;34587;48.816;9.420;2023-05-02T14:15:46;99266.66;;;18.62;57.85
48792;BME280;34587;48.816;9.420;2023-05-02T14:18:12;99260.09;;;18.93;56.32
48792;BME280;34587;48.816;9.420;2023-05-02T14:20:37;99264.97;;;18.82;55.51
48792;BME280;34587;48.816;9.420;2023-05-02T14:23:02;99263.09;;;18.63;55.96
48792;BME280;34587;48.816;9.420;2023-05-02T14:25:28;99267.25;;;18.48;55.50
48792;BME280;34587;48.816;9.420;2023-05-02T14:27:53;99263.75;;;18.89;52.94
48792;BME280;34587;48.816;9.420;2023-05-02T14:30:18;99266.38;;;18.89;49.79
48792;BME280;34587;48.816;9.420;2023-05-02T14:32:44;99264.00;;;18.42;54.25
48792;BME280;34587;48.816;9.420;2023-05-02T14:35:09;99252.91;;;19.55;52.64
48792;BME280;34587;48.816;9.420;2023-05-02T14:37:34;99261.38;;;19.03;48.89
48792;BME280;34587;48.816;9.420;2023-05-02T14:40:00;99259.78;;;20.12;45.43
48792;BME280;34587;48.816;9.420;2023-05-02T14:42:25;99267.50;;;19.98;46.40
48792;BME280;34587;48.816;9.420;2023-05-02T14:44:50;99267.91;;;19.13;46.52
48792;BME280;34587;48.816;9.420;2023-05-02T14:47:16;99262.97;;;19.26;48.38
48792;BME280;34587;48.816;9.420;2023-05-02T14:49:42;99257.69;;;19.07;47.60
48792;BME280;34587;48.816;9.420;2023-05-02T14:52:07;99260.28;;;18.88;46.02
48792;BME280;34587;48.816;9.420;2023-05-02T14:54:33;99258.44;;;19.67;47.43
48792;BME280;34587;48.816;9.420;2023-05-02T14:56:58;99264.69;;;19.27;47.03
48792;BME280;34587;48.816;9.420;2023-05-02T14:59:27;99265.94;;;19.18;46.06
48792;BME280;34587;48.816;9.420;2023-05-02T15:01:52;99273.09;;;18.75;48.48
48792;BME280;34587;48.816;9.420;2023-05-02T15:04:18;99270.38;;;18.97;47.66
48792;BME280;34587;48.816;9.420;2023-05-02T15:06:43;99272.31;;;18.73;47.17
48792;BME280;34587;48.816;9.420;2023-05-02T15:09:09;99264.16;;;18.80;46.77
48792;BME280;34587;48.816;9.420;2023-05-02T15:11:36;99250.13;;;18.81;48.17
48792;BME280;34587;48.816;9.420;2023-05-02T15:14:01;99269.56;;;18.77;46.85
48792;BME280;34587;48.816;9.420;2023-05-02T15:16:27;99262.88;;;18.69;48.75
48792;BME280;34587;48.816;9.420;2023-05-02T15:18:52;99275.28;;;18.23;47.80
48792;BME280;34587;48.816;9.420;2023-05-02T15:21:18;99286.38;;;18.08;48.68
48792;BME280;34587;48.816;9.420;2023-05-02T15:23:43;99290.78;;;17.86;50.39
48792;BME280;34587;48.816;9.420;2023-05-02T15:26:08;99300.25;;;17.19;49.52
48792;BME280;34587;48.816;9.420;2023-05-02T15:28:34;99295.13;;;16.66;50.96
48792;BME280;34587;48.816;9.420;2023-05-02T15:30:59;99288.50;;;17.06;50.12
48792;BME280;34587;48.816;9.420;2023-05-02T15:33:24;99295.44;;;17.32;51.22
48792;BME280;34587;48.816;9.420;2023-05-02T15:35:55;99295.47;;;17.07;51.19
48792;BME280;34587;48.816;9.420;2023-05-02T15:38:22;99290.47;;;17.48;49.88
48792;BME280;34587;48.816;9.420;2023-05-02T15:40:58;99293.84;;;17.75;49.15
48792;BME280;34587;48.816;9.420;2023-05-02T15:43:24;99290.22;;;17.54;46.77
48792;BME280;34587;48.816;9.420;2023-05-02T15:45:55;99292.91;;;17.53;47.10
48792;BME280;34587;48.816;9.420;2023-05-02T15:48:21;99289.63;;;17.47;46.49
48792;BME280;34587;48.816;9.420;2023-05-02T15:50:47;99288.25;;;17.84;47.03
48792;BME280;34587;48.816;9.420;2023-05-02T15:53:15;99298.66;;;17.62;45.01
48792;BME280;34587;48.816;9.420;2023-05-02T15:55:42;99303.47;;;17.96;46.46
48792;BME280;34587;48.816;9.420;2023-05-02T15:58:11;99296.63;;;17.47;46.69
48792;BME280;34587;48.816;9.420;2023-05-02T16:00:37;99294.69;;;18.19;44.75
48792;BME280;34587;48.816;9.420;2023-05-02T16:03:02;99294.44;;;17.82;45.26
48792;BME280;34587;48.816;9.420;2023-05-02T16:05:28;99290.69;;;17.42;46.66
48792;BME280;34587;48.816;9.420;2023-05-02T16:07:53;99298.38;;;17.46;47.40
48792;BME280;34587;48.816;9.420;2023-05-02T16:10:19;99298.03;;;18.01;46.07
48792;BME280;34587;48.816;9.420;2023-05-02T16:12:44;99297.63;;;17.90;46.51
48792;BME280;34587;48.816;9.420;2023-05-02T16:15:10;99297.75;;;18.09;45.51
48792;BME280;34587;48.816;9.420;2023-05-02T16:17:35;99298.53;;;17.65;44.77
48792;BME280;34587;48.816;9.420;2023-05-02T16:20:00;99297.03;;;17.36;45.14
48792;BME280;34587;48.816;9.420;2023-05-02T16:22:26;99294.75;;;17.27;46.14
48792;BME280;34587;48.816;9.420;2023-05-02T16:24:53;99296.19;;;17.36;46.49
48792;BME280;34587;48.816;9.420;2023-05-02T16:27:18;99297.16;;;17.79;45.01
48792;BME280;34587;48.816;9.420;2023-05-02T16:29:43;99300.84;;;17.51;45.24
48792;BME280;34587;48.816;9.420;2023-05-02T16:32:12;99297.31;;;17.76;44.94
48792;BME280;34587;48.816;9.420;2023-05-02T16:34:37;99301.19;;;17.42;45.50
48792;BME280;34587;48.816;9.420;2023-05-02T16:37:02;99299.75;;;17.33;45.94
48792;BME280;34587;48.816;9.420;2023-05-02T16:39:28;99307.38;;;17.39;46.74
48792;BME280;34587;48.816;9.420;2023-05-02T16:41:53;99303.91;;;17.62;46.94
48792;BME280;34587;48.816;9.420;2023-05-02T16:44:18;99307.00;;;17.95;45.23
48792;BME280;34587;48.816;9.420;2023-05-02T16:46:44;99299.94;;;18.19;45.70
48792;BME280;34587;48.816;9.420;2023-05-02T16:49:09;99303.81;;;18.31;44.10
48792;BME280;34587;48.816;9.420;2023-05-02T16:51:34;99304.53;;;18.35;44.10
48792;BME280;34587;48.816;9.420;2023-05-02T16:54:00;99302.28;;;18.47;44.43
48792;BME280;34587;48.816;9.420;2023-05-02T16:56:25;99295.66;;;17.95;43.59
48792;BME280;34587;48.816;9.420;2023-05-02T16:58:50;99301.00;;;18.36;43.15
48792;BME280;34587;48.816;9.420;2023-05-02T17:01:16;99300.53;;;18.68;42.89
48792;BME280;34587;48.816;9.420;2023-05-02T17:03:41;99302.13;;;18.08;44.53
48792;BME280;34587;48.816;9.420;2023-05-02T17:06:07;99302.72;;;17.93;44.95
48792;BME280;34587;48.816;9.420;2023-05-02T17:08:32;99304.38;;;17.95;45.28
48792;BME280;34587;48.816;9.420;2023-05-02T17:10:57;99305.81;;;18.04;46.54
48792;BME280;34587;48.816;9.420;2023-05-02T17:13:23;99305.94;;;17.54;47.18
48792;BME280;34587;48.816;9.420;2023-05-02T17:15:48;99319.72;;;17.12;47.37
48792;BME280;34587;48.816;9.420;2023-05-02T17:18:14;99323.25;;;17.11;47.53
48792;BME280;34587;48.816;9.420;2023-05-02T17:20:40;99322.00;;;16.98;46.50
48792;BME280;34587;48.816;9.420;2023-05-02T17:23:05;99324.00;;;16.90;45.65
48792;BME280;34587;48.816;9.420;2023-05-02T17:25:31;99321.63;;;16.84;45.33
48792;BME280;34587;48.816;9.420;2023-05-02T17:27:56;99321.41;;;16.63;45.47
48792;BME280;34587;48.816;9.420;2023-05-02T17:30:22;99324.31;;;16.81;46.46
48792;BME280;34587;48.816;9.420;2023-05-02T17:32:49;99330.81;;;16.69;46.15
48792;BME280;34587;48.816;9.420;2023-05-02T17:35:14;99327.91;;;16.52;44.86